createdAt,value
2023-11-29T00:00:46.172Z,98755.38
2023-11-29T00:01:49.434Z,98762.25
2023-11-29T00:02:52.460Z,98766.34
2023-11-29T00:03:55.481Z,98768.00
2023-11-29T00:04:59.254Z,98764.84
2023-11-29T00:06:04.268Z,98763.75
2023-11-29T00:07:07.960Z,98768.94
2023-11-29T00:08:10.893Z,98774.50
2023-11-29T00:09:13.883Z,98769.25
2023-11-29T00:10:16.591Z,98772.00
2023-11-29T00:11:19.418Z,98773.50
2023-11-29T00:12:22.783Z,98771.91
2023-11-29T00:13:25.774Z,98774.44
2023-11-29T00:14:28.546Z,98732.41
2023-11-29T00:15:31.376Z,98768.31
2023-11-29T00:16:34.312Z,98770.25
2023-11-29T00:17:37.572Z,98775.31
2023-11-29T00:18:40.621Z,98772.91
2023-11-29T00:19:44.463Z,98783.09
2023-11-29T00:20:47.505Z,98777.84
2023-11-29T00:21:50.456Z,98788.87
2023-11-29T00:22:53.530Z,98781.37
2023-11-29T00:23:56.153Z,98789.50
2023-11-29T00:24:58.815Z,98788.56
2023-11-29T00:26:01.662Z,98792.00
2023-11-29T00:27:07.585Z,98792.41
2023-11-29T00:28:10.696Z,98790.75
2023-11-29T00:29:13.404Z,98793.62
2023-11-29T00:30:16.452Z,98802.25
2023-11-29T00:31:19.909Z,98806.50
2023-11-29T00:32:23.066Z,98809.75
2023-11-29T00:33:26.061Z,98807.16
2023-11-29T00:34:28.948Z,98817.63
2023-11-29T00:35:32.069Z,98811.59
2023-11-29T00:36:35.050Z,98820.13
2023-11-29T00:37:37.735Z,98815.25
2023-11-29T00:38:40.725Z,98821.25
2023-11-29T00:39:43.495Z,98821.03
2023-11-29T00:40:46.922Z,98821.09
2023-11-29T00:41:49.796Z,98827.13
2023-11-29T00:43:00.165Z,98796.31
2023-11-29T00:44:07.057Z,98829.28
2023-11-29T00:45:10.538Z,98828.28
2023-11-29T00:46:13.228Z,98818.09
2023-11-29T00:47:15.934Z,98826.28
2023-11-29T00:48:18.939Z,98822.97
2023-11-29T00:49:22.065Z,98826.28
2023-11-29T00:50:26.083Z,98829.81
2023-11-29T00:51:29.034Z,98838.50
2023-11-29T00:52:31.766Z,98848.69
2023-11-29T00:53:34.455Z,98847.00
2023-11-29T00:54:37.748Z,98854.88
2023-11-29T00:55:40.603Z,98853.09
2023-11-29T00:56:43.517Z,98855.53
2023-11-29T00:57:46.488Z,98839.62
2023-11-29T00:58:49.399Z,98856.53
2023-11-29T00:59:52.861Z,98850.66
2023-11-29T01:00:55.855Z,98854.25
2023-11-29T01:01:58.938Z,98850.19
2023-11-29T01:03:02.185Z,98856.81
2023-11-29T01:04:05.283Z,98854.84
2023-11-29T01:05:08.901Z,98860.00
2023-11-29T01:06:11.789Z,98851.94
2023-11-29T01:07:14.686Z,98853.03
2023-11-29T01:08:17.637Z,98857.06
2023-11-29T01:09:20.975Z,98854.53
2023-11-29T01:10:25.745Z,98854.38
2023-11-29T01:11:28.955Z,98862.09
2023-11-29T01:12:31.550Z,98857.13
2023-11-29T01:13:34.466Z,98868.16
2023-11-29T01:14:37.156Z,98868.94
2023-11-29T01:15:40.291Z,98827.41
2023-11-29T01:16:42.888Z,98863.28
2023-11-29T01:17:45.686Z,98864.87
2023-11-29T01:18:48.929Z,98875.41
2023-11-29T01:19:51.876Z,98872.50
2023-11-29T01:20:55.395Z,98873.13
2023-11-29T01:21:58.353Z,98876.62
2023-11-29T01:23:01.328Z,98881.97
2023-11-29T01:24:04.566Z,98887.16
2023-11-29T01:25:08.088Z,98895.25
2023-11-29T01:26:11.385Z,98879.87
2023-11-29T01:27:14.254Z,98881.63
2023-11-29T01:28:16.840Z,98898.16
2023-11-29T01:29:19.793Z,98889.56
2023-11-29T01:30:22.718Z,98886.34
2023-11-29T01:31:28.401Z,98890.69
2023-11-29T01:32:31.311Z,98892.94
2023-11-29T01:33:35.065Z,98903.28
2023-11-29T01:34:41.136Z,98900.78
2023-11-29T01:35:44.017Z,98900.06
2023-11-29T01:36:47.665Z,98906.62
2023-11-29T01:37:52.139Z,98908.31
2023-11-29T01:38:55.033Z,98908.09
2023-11-29T01:39:58.689Z,98908.69
2023-11-29T01:41:02.136Z,98916.72
2023-11-29T01:42:05.612Z,98920.19
2023-11-29T01:43:08.444Z,98919.09
2023-11-29T01:44:11.295Z,98911.03
2023-11-29T01:45:14.256Z,98923.91
2023-11-29T01:46:18.182Z,98921.53
2023-11-29T01:47:21.524Z,98930.91
2023-11-29T01:48:26.504Z,98926.50
2023-11-29T01:49:29.358Z,98925.94
2023-11-29T01:50:36.757Z,98927.47
2023-11-29T01:51:39.843Z,98932.50
2023-11-29T01:52:44.964Z,98938.59
2023-11-29T01:53:48.736Z,98947.53
2023-11-29T01:54:51.656Z,98939.59
2023-11-29T01:55:55.176Z,98949.56
2023-11-29T01:56:57.932Z,98957.69
2023-11-29T01:58:00.899Z,98967.94
2023-11-29T01:59:03.900Z,98968.09
2023-11-29T02:00:08.342Z,98978.44
2023-11-29T02:01:16.300Z,98981.31
2023-11-29T02:02:20.543Z,98977.09
2023-11-29T02:03:23.658Z,98982.22
2023-11-29T02:04:26.818Z,98979.47
2023-11-29T02:05:29.497Z,98979.66
2023-11-29T02:06:32.578Z,98975.16
2023-11-29T02:07:37.350Z,98988.09
2023-11-29T02:08:40.177Z,98988.28
2023-11-29T02:09:43.631Z,98989.03
2023-11-29T02:10:47.854Z,98989.91
2023-11-29T02:11:51.227Z,98991.16
2023-11-29T02:12:54.471Z,98951.81
2023-11-29T02:13:57.111Z,98955.34
2023-11-29T02:14:59.999Z,99008.78
2023-11-29T02:16:03.435Z,98999.78
2023-11-29T02:17:06.639Z,98998.75
2023-11-29T02:18:09.935Z,99008.28
2023-11-29T02:19:12.644Z,99014.09
2023-11-29T02:20:18.741Z,99016.94
2023-11-29T02:21:25.129Z,99007.22
2023-11-29T02:22:29.300Z,99013.09
2023-11-29T02:23:46.500Z,99006.88
2023-11-29T02:24:49.627Z,99018.19
2023-11-29T02:25:52.384Z,99025.69
2023-11-29T02:26:58.050Z,99034.44
2023-11-29T02:28:03.843Z,99033.69
2023-11-29T02:29:06.750Z,99040.41
2023-11-29T02:30:10.137Z,99039.31
2023-11-29T02:31:13.049Z,99044.25
2023-11-29T02:32:16.178Z,99042.66
2023-11-29T02:33:19.458Z,99033.75
2023-11-29T02:34:22.071Z,99051.88
2023-11-29T02:35:25.040Z,99053.31
2023-11-29T02:36:27.659Z,99054.16
2023-11-29T02:37:30.568Z,99056.81
2023-11-29T02:38:33.774Z,99054.97
2023-11-29T02:39:36.739Z,99062.22
2023-11-29T02:40:39.901Z,99067.03
2023-11-29T02:41:42.835Z,99064.69
2023-11-29T02:42:45.765Z,99062.81
2023-11-29T02:43:56.377Z,99072.25
2023-11-29T02:44:59.057Z,99073.88
2023-11-29T02:46:01.751Z,99067.78
2023-11-29T02:47:04.741Z,99078.34
2023-11-29T02:48:07.976Z,99061.53
2023-11-29T02:49:11.319Z,99081.63
2023-11-29T02:50:14.543Z,99085.63
2023-11-29T02:51:17.487Z,99087.78
2023-11-29T02:52:20.388Z,99089.53
2023-11-29T02:53:23.297Z,99091.31
2023-11-29T02:54:26.555Z,99097.28
2023-11-29T02:55:29.560Z,99098.19
2023-11-29T02:56:32.499Z,99096.22
2023-11-29T02:57:35.546Z,99102.97
2023-11-29T02:58:38.268Z,99097.97
2023-11-29T02:59:42.905Z,99114.41
2023-11-29T03:00:45.645Z,99101.28
2023-11-29T03:01:48.601Z,99106.53
2023-11-29T03:02:51.669Z,99109.25
2023-11-29T03:03:54.429Z,99116.78
2023-11-29T03:04:58.697Z,99117.06
2023-11-29T03:06:01.278Z,99119.66
2023-11-29T03:07:04.501Z,99108.78
2023-11-29T03:08:09.256Z,99121.34
2023-11-29T03:09:12.288Z,99116.63
2023-11-29T03:10:15.505Z,99119.78
2023-11-29T03:11:18.457Z,99123.31
2023-11-29T03:12:21.417Z,99124.16
2023-11-29T03:13:28.635Z,99119.84
2023-11-29T03:14:31.676Z,99127.41
2023-11-29T03:15:34.875Z,99116.41
2023-11-29T03:16:37.910Z,99126.84
2023-11-29T03:17:40.857Z,99130.00
2023-11-29T03:18:49.612Z,99132.78
2023-11-29T03:19:52.360Z,99136.25
2023-11-29T03:20:55.631Z,99097.81
2023-11-29T03:21:58.539Z,99143.75
2023-11-29T03:23:01.364Z,99145.84
2023-11-29T03:24:04.103Z,99151.72
2023-11-29T03:25:09.195Z,99146.44
2023-11-29T03:26:12.098Z,99155.31
2023-11-29T03:27:18.379Z,99153.91
2023-11-29T03:28:21.280Z,99152.75
2023-11-29T03:29:26.647Z,99161.41
2023-11-29T03:30:29.749Z,99156.84
2023-11-29T03:31:32.944Z,99171.47
2023-11-29T03:32:35.720Z,99165.41
2023-11-29T03:33:38.615Z,99171.16
2023-11-29T03:34:48.679Z,99176.44
2023-11-29T03:35:51.953Z,99177.78
2023-11-29T03:36:56.584Z,99137.53
2023-11-29T03:37:59.345Z,99186.78
2023-11-29T03:39:02.357Z,99192.19
2023-11-29T03:40:05.672Z,99190.09
2023-11-29T03:41:09.160Z,99184.59
2023-11-29T03:42:12.413Z,99185.53
2023-11-29T03:43:15.124Z,99193.87
2023-11-29T03:44:18.025Z,99183.44
2023-11-29T03:45:21.850Z,99187.53
2023-11-29T03:46:25.170Z,99189.06
2023-11-29T03:47:28.400Z,99186.06
2023-11-29T03:48:31.351Z,99191.34
2023-11-29T03:49:34.236Z,99191.13
2023-11-29T03:50:37.089Z,99194.69
2023-11-29T03:51:44.942Z,99194.78
2023-11-29T03:52:50.537Z,99194.59
2023-11-29T03:53:53.225Z,99196.34
2023-11-29T03:54:56.182Z,99198.09
2023-11-29T03:55:58.771Z,99200.47
2023-11-29T03:57:01.897Z,99203.38
2023-11-29T03:58:06.005Z,99202.44
2023-11-29T03:59:10.068Z,99204.88
2023-11-29T04:00:15.096Z,99213.59
2023-11-29T04:01:19.674Z,99215.37
2023-11-29T04:02:22.733Z,99218.53
2023-11-29T04:03:25.606Z,99214.00
2023-11-29T04:04:28.596Z,99213.88
2023-11-29T04:05:31.275Z,99221.28
2023-11-29T04:06:34.242Z,99224.06
2023-11-29T04:07:37.128Z,99201.06
2023-11-29T04:08:40.029Z,99226.47
2023-11-29T04:09:46.286Z,99230.75
2023-11-29T04:10:50.160Z,99220.66
2023-11-29T04:11:53.410Z,99235.81
2023-11-29T04:12:56.511Z,99241.75
2023-11-29T04:13:59.410Z,99242.41
2023-11-29T04:15:02.176Z,99237.47
2023-11-29T04:16:06.342Z,99248.84
2023-11-29T04:17:10.347Z,99243.72
2023-11-29T04:18:13.104Z,99243.09
2023-11-29T04:19:15.992Z,99247.13
2023-11-29T04:20:18.757Z,99245.31
2023-11-29T04:21:33.617Z,99244.38
2023-11-29T04:22:39.411Z,99250.16
2023-11-29T04:23:42.466Z,99221.50
2023-11-29T04:24:45.732Z,99254.16
2023-11-29T04:25:48.659Z,99258.38
2023-11-29T04:26:51.842Z,99255.78
2023-11-29T04:27:55.137Z,99256.69
2023-11-29T04:28:59.384Z,99262.03
2023-11-29T04:30:02.688Z,99265.00
2023-11-29T04:31:06.356Z,99262.47
2023-11-29T04:32:09.304Z,99254.94
2023-11-29T04:33:12.383Z,99266.09
2023-11-29T04:34:23.296Z,99264.50
2023-11-29T04:35:35.979Z,99268.81
2023-11-29T04:36:40.440Z,99263.66
2023-11-29T04:37:43.914Z,99266.12
2023-11-29T04:38:47.669Z,99271.06
2023-11-29T04:39:50.580Z,99264.09
2023-11-29T04:40:53.175Z,99279.59
2023-11-29T04:41:56.074Z,99272.88
2023-11-29T04:42:58.909Z,99272.09
2023-11-29T04:44:02.091Z,99288.31
2023-11-29T04:45:05.468Z,99286.00
2023-11-29T04:46:08.204Z,99283.22
2023-11-29T04:47:11.062Z,99289.88
2023-11-29T04:48:13.942Z,99289.47
2023-11-29T04:49:17.134Z,99289.59
2023-11-29T04:50:20.116Z,99288.31
2023-11-29T04:51:23.072Z,99283.41
2023-11-29T04:52:25.747Z,99290.50
2023-11-29T04:53:28.808Z,99291.13
2023-11-29T04:54:32.021Z,99291.63
2023-11-29T04:55:34.859Z,99289.75
2023-11-29T04:56:37.718Z,99296.78
2023-11-29T04:57:40.663Z,99291.72
2023-11-29T04:58:43.281Z,99291.63
2023-11-29T04:59:46.264Z,99297.56
2023-11-29T05:00:49.446Z,99296.84
2023-11-29T05:01:52.959Z,99293.53
2023-11-29T05:02:56.986Z,99296.91
2023-11-29T05:03:59.738Z,99313.97
2023-11-29T05:05:02.989Z,99307.91
2023-11-29T05:06:07.129Z,99311.44
2023-11-29T05:07:10.098Z,99306.47
2023-11-29T05:08:13.020Z,99305.44
2023-11-29T05:09:16.137Z,99309.75
2023-11-29T05:10:19.048Z,99314.87
2023-11-29T05:11:22.006Z,99314.50
2023-11-29T05:12:24.741Z,99306.87
2023-11-29T05:13:27.785Z,99313.53
2023-11-29T05:14:30.603Z,99323.28
2023-11-29T05:15:35.617Z,99329.97
2023-11-29T05:16:38.498Z,99329.03
2023-11-29T05:17:41.475Z,99333.34
2023-11-29T05:18:44.699Z,99332.28
2023-11-29T05:19:47.695Z,99337.97
2023-11-29T05:20:50.934Z,99337.97
2023-11-29T05:21:53.912Z,99338.03
2023-11-29T05:22:57.065Z,99340.56
2023-11-29T05:24:00.222Z,99337.13
2023-11-29T05:25:03.134Z,99347.44
2023-11-29T05:26:07.692Z,99344.13
2023-11-29T05:27:10.985Z,99346.41
2023-11-29T05:28:13.894Z,99345.50
2023-11-29T05:29:17.254Z,99353.22
2023-11-29T05:30:20.239Z,99348.78
2023-11-29T05:31:23.325Z,99323.66
2023-11-29T05:32:26.389Z,99353.84
2023-11-29T05:33:31.052Z,99363.19
2023-11-29T05:34:34.765Z,99361.44
2023-11-29T05:35:37.897Z,99364.12
2023-11-29T05:36:40.825Z,99355.94
2023-11-29T05:37:43.942Z,99375.34
2023-11-29T05:38:46.698Z,99377.16
2023-11-29T05:39:49.954Z,99370.50
2023-11-29T05:40:52.588Z,99358.75
2023-11-29T05:41:56.525Z,99374.81
2023-11-29T05:42:59.617Z,99385.03
2023-11-29T05:44:02.484Z,99382.47
2023-11-29T05:45:08.482Z,99391.22
2023-11-29T05:46:11.287Z,99391.87
2023-11-29T05:47:15.024Z,99392.75
2023-11-29T05:48:18.058Z,99395.38
2023-11-29T05:49:21.728Z,99397.97
2023-11-29T05:50:24.646Z,99395.38
2023-11-29T05:51:28.331Z,99384.31
2023-11-29T05:52:31.282Z,99392.00
2023-11-29T05:53:34.169Z,99395.38
2023-11-29T05:54:37.134Z,99395.12
2023-11-29T05:55:40.008Z,99403.94
2023-11-29T05:56:42.905Z,99403.97
2023-11-29T05:57:46.614Z,99410.03
2023-11-29T05:58:50.248Z,99408.28
2023-11-29T05:59:52.846Z,99407.50
2023-11-29T06:00:55.817Z,99417.72
2023-11-29T06:01:59.918Z,99419.34
2023-11-29T06:03:03.143Z,99420.84
2023-11-29T06:04:07.306Z,99416.31
2023-11-29T06:05:10.291Z,99428.59
2023-11-29T06:06:14.221Z,99428.97
2023-11-29T06:07:17.465Z,99429.69
2023-11-29T06:08:21.272Z,99428.97
2023-11-29T06:09:29.746Z,99430.53
2023-11-29T06:10:32.420Z,99436.66
2023-11-29T06:11:38.262Z,99429.03
2023-11-29T06:12:41.301Z,99370.84
2023-11-29T06:13:43.923Z,99437.81
2023-11-29T06:14:47.618Z,99432.88
2023-11-29T06:15:50.669Z,99433.53
2023-11-29T06:16:54.558Z,99433.94
2023-11-29T06:17:57.835Z,99427.19
2023-11-29T06:19:01.154Z,99437.37
2023-11-29T06:20:13.224Z,99434.16
2023-11-29T06:21:16.145Z,99429.72
2023-11-29T06:22:19.606Z,99440.12
2023-11-29T06:23:22.882Z,99436.72
2023-11-29T06:24:25.970Z,99439.38
2023-11-29T06:25:28.774Z,99440.31
2023-11-29T06:26:33.862Z,99434.31
2023-11-29T06:27:37.443Z,99439.50
2023-11-29T06:28:41.625Z,99432.72
2023-11-29T06:29:44.342Z,99443.81
2023-11-29T06:30:47.167Z,99443.00
2023-11-29T06:31:49.961Z,99451.53
2023-11-29T06:32:53.043Z,99457.88
2023-11-29T06:33:55.982Z,99452.59
2023-11-29T06:34:58.598Z,99459.53
2023-11-29T06:36:04.461Z,99458.72
2023-11-29T06:37:08.588Z,99462.91
2023-11-29T06:38:11.543Z,99459.53
2023-11-29T06:39:14.695Z,99472.12
2023-11-29T06:40:20.262Z,99460.91
2023-11-29T06:41:23.225Z,99468.91
2023-11-29T06:42:25.838Z,99473.06
2023-11-29T06:43:28.836Z,99469.72
2023-11-29T06:44:31.786Z,99474.59
2023-11-29T06:45:34.998Z,99474.59
2023-11-29T06:46:40.696Z,99477.53
2023-11-29T06:47:43.691Z,99484.63
2023-11-29T06:48:46.671Z,99483.50
2023-11-29T06:49:50.571Z,99485.44
2023-11-29T06:50:55.094Z,99488.91
2023-11-29T06:51:58.089Z,99495.12
2023-11-29T06:53:02.185Z,99490.63
2023-11-29T06:54:05.692Z,99490.63
2023-11-29T06:55:08.730Z,99498.28
2023-11-29T06:56:11.980Z,99493.06
2023-11-29T06:57:15.111Z,99493.06
2023-11-29T06:58:23.519Z,99497.91
2023-11-29T06:59:27.013Z,99499.19
2023-11-29T07:00:30.292Z,99505.09
2023-11-29T07:01:33.957Z,99493.88
2023-11-29T07:02:42.980Z,99443.25
2023-11-29T07:03:46.064Z,99507.19
2023-11-29T07:04:50.206Z,99509.50
2023-11-29T07:05:54.889Z,99511.28
2023-11-29T07:06:57.588Z,99502.56
2023-11-29T07:08:00.391Z,99520.63
2023-11-29T07:09:07.201Z,99516.34
2023-11-29T07:10:11.031Z,99523.50
2023-11-29T07:11:14.612Z,99519.47
2023-11-29T07:12:17.973Z,99526.94
2023-11-29T07:13:20.638Z,99524.09
2023-11-29T07:14:24.812Z,99465.88
2023-11-29T07:15:27.804Z,99526.09
2023-11-29T07:16:30.989Z,99532.62
2023-11-29T07:17:35.177Z,99536.84
2023-11-29T07:18:38.759Z,99535.22
2023-11-29T07:19:41.992Z,99543.06
2023-11-29T07:20:46.685Z,99547.19
2023-11-29T07:21:50.195Z,99548.97
2023-11-29T07:22:52.794Z,99543.69
2023-11-29T07:23:56.012Z,99552.16
2023-11-29T07:24:58.973Z,99557.50
2023-11-29T07:26:01.841Z,99550.53
2023-11-29T07:27:04.695Z,99553.09
2023-11-29T07:28:07.581Z,99556.63
2023-11-29T07:29:10.191Z,99562.47
2023-11-29T07:30:12.948Z,99560.75
2023-11-29T07:31:16.083Z,99565.81
2023-11-29T07:32:23.818Z,99572.69
2023-11-29T07:33:26.898Z,99571.22
2023-11-29T07:34:29.894Z,99558.41
2023-11-29T07:35:32.561Z,99571.78
2023-11-29T07:36:35.240Z,99575.47
2023-11-29T07:37:38.422Z,99577.03
2023-11-29T07:38:42.036Z,99570.94
2023-11-29T07:39:44.777Z,99567.84
2023-11-29T07:40:47.763Z,99577.16
2023-11-29T07:41:50.696Z,99580.72
2023-11-29T07:42:56.227Z,99583.63
2023-11-29T07:43:59.116Z,99584.44
2023-11-29T07:45:02.154Z,99582.59
2023-11-29T07:46:06.040Z,99591.63
2023-11-29T07:47:09.087Z,99588.53
2023-11-29T07:48:12.413Z,99590.34
2023-11-29T07:49:16.624Z,99592.38
2023-11-29T07:50:19.772Z,99596.59
2023-11-29T07:51:23.786Z,99589.25
2023-11-29T07:52:26.656Z,99597.53
2023-11-29T07:53:32.415Z,99593.94
2023-11-29T07:54:35.353Z,99563.81
2023-11-29T07:55:38.254Z,99599.19
2023-11-29T07:56:43.866Z,99603.34
2023-11-29T07:57:48.074Z,99610.38
2023-11-29T07:58:51.055Z,99600.03
2023-11-29T07:59:53.853Z,99609.34
2023-11-29T08:00:56.714Z,99603.34
2023-11-29T08:01:59.927Z,99612.84
2023-11-29T08:03:03.093Z,99611.22
2023-11-29T08:04:06.598Z,99617.00
2023-11-29T08:05:09.996Z,99605.69
2023-11-29T08:06:12.877Z,99611.53
2023-11-29T08:07:15.820Z,99612.34
2023-11-29T08:08:18.650Z,99619.09
2023-11-29T08:09:22.043Z,99612.69
2023-11-29T08:10:24.738Z,99621.31
2023-11-29T08:11:29.161Z,99615.19
2023-11-29T08:12:32.438Z,99618.34
2023-11-29T08:13:35.270Z,99614.31
2023-11-29T08:14:38.134Z,99620.94
2023-11-29T08:15:42.455Z,99615.03
2023-11-29T08:16:45.435Z,99621.97
2023-11-29T08:17:48.480Z,99586.38
2023-11-29T08:18:53.838Z,99626.78
2023-11-29T08:19:56.981Z,99628.37
2023-11-29T08:20:59.637Z,99626.94
2023-11-29T08:22:05.045Z,99632.81
2023-11-29T08:23:08.230Z,99633.53
2023-11-29T08:24:10.841Z,99635.09
2023-11-29T08:25:14.230Z,99640.38
2023-11-29T08:26:17.090Z,99643.06
2023-11-29T08:27:20.341Z,99642.75
2023-11-29T08:28:24.468Z,99642.03
2023-11-29T08:29:27.417Z,99646.34
2023-11-29T08:30:30.279Z,99653.06
2023-11-29T08:31:33.170Z,99653.09
2023-11-29T08:32:37.124Z,99657.41
2023-11-29T08:33:41.884Z,99651.13
2023-11-29T08:34:47.027Z,99649.19
2023-11-29T08:35:50.037Z,99657.69
2023-11-29T08:36:54.257Z,99656.16
2023-11-29T08:37:59.274Z,99657.94
2023-11-29T08:39:03.889Z,99658.87
2023-11-29T08:40:09.064Z,99661.38
2023-11-29T08:41:11.936Z,99663.84
2023-11-29T08:42:15.003Z,99662.69
2023-11-29T08:43:23.496Z,99669.41
2023-11-29T08:44:27.367Z,99663.41
2023-11-29T08:45:31.318Z,99673.37
2023-11-29T08:46:34.172Z,99672.50
2023-11-29T08:47:37.531Z,99669.84
2023-11-29T08:48:40.698Z,99674.91
2023-11-29T08:49:43.835Z,99671.47
2023-11-29T08:50:46.807Z,99676.44
2023-11-29T08:51:49.763Z,99680.00
2023-11-29T08:52:52.754Z,99683.06
2023-11-29T08:53:56.728Z,99683.06
2023-11-29T08:55:00.238Z,99682.34
2023-11-29T08:56:03.627Z,99683.03
2023-11-29T08:57:06.762Z,99673.37
2023-11-29T08:58:10.220Z,99685.62
2023-11-29T08:59:13.234Z,99687.13
2023-11-29T09:00:16.936Z,99687.84
2023-11-29T09:01:26.193Z,99698.09
2023-11-29T09:02:28.964Z,99702.53
2023-11-29T09:03:32.091Z,99701.31
2023-11-29T09:04:35.054Z,99705.78
2023-11-29T09:05:40.875Z,99715.03
2023-11-29T09:06:43.591Z,99705.94
2023-11-29T09:07:46.168Z,99705.81
2023-11-29T09:08:49.526Z,99715.25
2023-11-29T09:09:52.437Z,99714.28
2023-11-29T09:10:55.570Z,99705.09
2023-11-29T09:11:58.479Z,99713.28
2023-11-29T09:13:01.507Z,99726.22
2023-11-29T09:14:04.261Z,99716.78
2023-11-29T09:15:07.952Z,99713.28
2023-11-29T09:16:12.308Z,99724.25
2023-11-29T09:17:17.929Z,99727.75
2023-11-29T09:18:20.748Z,99730.16
2023-11-29T09:19:23.980Z,99730.09
2023-11-29T09:20:27.231Z,99721.66
2023-11-29T09:21:36.393Z,99735.34
2023-11-29T09:22:41.918Z,99728.59
2023-11-29T09:23:45.855Z,99724.91
2023-11-29T09:24:49.790Z,99730.09
2023-11-29T09:25:52.423Z,99726.53
2023-11-29T09:26:58.514Z,99726.53
2023-11-29T09:28:07.804Z,99731.63
2023-11-29T09:29:10.704Z,99724.72
2023-11-29T09:30:14.386Z,99718.81
2023-11-29T09:31:17.053Z,99716.00
2023-11-29T09:32:20.283Z,99732.88
2023-11-29T09:33:23.220Z,99725.72
2023-11-29T09:34:26.196Z,99729.41
2023-11-29T09:35:28.906Z,99728.44
2023-11-29T09:36:31.885Z,99729.59
2023-11-29T09:37:35.198Z,99723.97
2023-11-29T09:38:37.819Z,99730.91
2023-11-29T09:39:40.670Z,99728.22
2023-11-29T09:40:44.019Z,99729.16
2023-11-29T09:41:47.173Z,99723.03
2023-11-29T09:43:00.027Z,99726.44
2023-11-29T09:44:04.842Z,99724.72
2023-11-29T09:45:11.977Z,99733.13
2023-11-29T09:46:15.626Z,99727.22
2023-11-29T09:47:19.044Z,99736.72
2023-11-29T09:48:22.727Z,99732.38
2023-11-29T09:49:27.494Z,99735.72
2023-11-29T09:50:32.752Z,99738.28
2023-11-29T09:51:37.206Z,99742.22
2023-11-29T09:52:42.892Z,99741.66
2023-11-29T09:53:46.045Z,99736.72
2023-11-29T09:54:49.683Z,99707.62
2023-11-29T09:55:54.360Z,99736.66
2023-11-29T09:56:56.926Z,99741.41
2023-11-29T09:58:00.922Z,99744.09
2023-11-29T09:59:04.975Z,99744.00
2023-11-29T10:00:11.230Z,99741.34
2023-11-29T10:01:14.210Z,99746.69
2023-11-29T10:02:21.200Z,99743.34
2023-11-29T10:03:24.226Z,99748.69
2023-11-29T10:04:27.237Z,99750.88
2023-11-29T10:05:30.230Z,99756.97
2023-11-29T10:06:35.970Z,99754.34
2023-11-29T10:07:40.411Z,99758.72
2023-11-29T10:08:43.380Z,99756.13
2023-11-29T10:09:46.503Z,99761.03
2023-11-29T10:10:50.415Z,99762.84
2023-11-29T10:11:54.691Z,99763.78
2023-11-29T10:12:58.062Z,99724.06
2023-11-29T10:14:01.088Z,99756.66
2023-11-29T10:15:07.819Z,99766.28
2023-11-29T10:16:18.198Z,99762.59
2023-11-29T10:17:21.580Z,99760.69
2023-11-29T10:18:24.543Z,99762.31
2023-11-29T10:19:27.216Z,99751.09
2023-11-29T10:20:31.004Z,99767.84
2023-11-29T10:21:33.912Z,99762.69
2023-11-29T10:22:37.063Z,99769.19
2023-11-29T10:23:46.170Z,99773.09
2023-11-29T10:24:49.903Z,99766.28
2023-11-29T10:25:52.823Z,99775.62
2023-11-29T10:26:55.720Z,99772.31
2023-11-29T10:27:59.727Z,99776.31
2023-11-29T10:29:02.782Z,99776.31
2023-11-29T10:30:07.134Z,99776.53
2023-11-29T10:31:10.313Z,99783.72
2023-11-29T10:32:14.305Z,99788.84
2023-11-29T10:33:17.693Z,99788.25
2023-11-29T10:34:22.363Z,99786.72
2023-11-29T10:35:27.873Z,99787.00
2023-11-29T10:36:31.224Z,99793.25
2023-11-29T10:37:35.417Z,99792.19
2023-11-29T10:38:46.090Z,99789.56
2023-11-29T10:39:55.385Z,99788.59
2023-11-29T10:41:02.348Z,99795.50
2023-11-29T10:42:11.942Z,99800.75
2023-11-29T10:43:19.959Z,99804.00
2023-11-29T10:44:31.166Z,99798.56
2023-11-29T10:45:37.423Z,99805.44
2023-11-29T10:46:41.611Z,99803.66
2023-11-29T10:47:54.504Z,99800.19
2023-11-29T10:49:03.249Z,99799.44
2023-11-29T10:50:12.078Z,99810.28
2023-11-29T10:51:18.660Z,99772.19
2023-11-29T10:52:22.191Z,99804.75
2023-11-29T10:53:25.145Z,99816.81
2023-11-29T10:54:39.812Z,99809.84
2023-11-29T10:55:46.619Z,99816.63
2023-11-29T10:56:53.145Z,99814.12
2023-11-29T10:58:29.807Z,99812.38
2023-11-29T10:59:36.210Z,99819.00
2023-11-29T11:00:42.631Z,99814.84
2023-11-29T11:01:46.462Z,99804.47
2023-11-29T11:02:50.240Z,99805.88
2023-11-29T11:03:53.543Z,99810.19
2023-11-29T11:05:10.235Z,99746.12
2023-11-29T11:06:23.556Z,99811.81
2023-11-29T11:07:48.502Z,99811.81
2023-11-29T11:08:52.373Z,99812.66
2023-11-29T11:09:57.508Z,99813.66
2023-11-29T11:11:00.248Z,99790.84
2023-11-29T11:12:05.702Z,99818.53
2023-11-29T11:13:36.583Z,99793.50
2023-11-29T11:14:55.449Z,99827.88
2023-11-29T11:15:59.456Z,99824.19
2023-11-29T11:17:10.933Z,99817.31
2023-11-29T11:18:17.360Z,99826.31
2023-11-29T11:19:50.115Z,99825.41
2023-11-29T11:20:57.880Z,99832.34
2023-11-29T11:22:02.050Z,99826.16
2023-11-29T11:23:06.708Z,99825.37
2023-11-29T11:24:12.490Z,99825.31
2023-11-29T11:25:17.193Z,99798.69
2023-11-29T11:26:19.850Z,99825.31
2023-11-29T11:27:31.457Z,99828.53
2023-11-29T11:28:41.255Z,99825.00
2023-11-29T11:29:45.393Z,99835.34
2023-11-29T11:30:54.790Z,99818.34
2023-11-29T11:31:57.804Z,99829.28
2023-11-29T11:33:01.824Z,99830.97
2023-11-29T11:34:11.047Z,99834.47
2023-11-29T11:35:19.570Z,99829.38
2023-11-29T11:36:24.206Z,99831.88
2023-11-29T11:37:28.037Z,99825.09
2023-11-29T11:38:30.719Z,99821.03
2023-11-29T11:39:33.422Z,99836.19
2023-11-29T11:40:39.388Z,99835.19
2023-11-29T11:41:42.403Z,99833.59
2023-11-29T11:42:48.556Z,99837.00
2023-11-29T11:43:52.844Z,99841.22
2023-11-29T11:44:56.347Z,99833.37
2023-11-29T11:45:59.540Z,99838.63
2023-11-29T11:47:02.195Z,99831.94
2023-11-29T11:48:06.883Z,99841.41
2023-11-29T11:49:10.047Z,99839.59
2023-11-29T11:50:14.854Z,99841.25
2023-11-29T11:51:22.007Z,99826.94
2023-11-29T11:52:24.903Z,99831.03
2023-11-29T11:53:27.795Z,99844.66
2023-11-29T11:54:31.184Z,99843.75
2023-11-29T11:55:35.669Z,99832.75
2023-11-29T11:56:39.579Z,99841.22
2023-11-29T11:57:45.173Z,99843.72
2023-11-29T11:58:48.535Z,99850.47
2023-11-29T11:59:52.426Z,99807.06
2023-11-29T12:00:55.613Z,99845.12
2023-11-29T12:01:58.999Z,99849.44
2023-11-29T12:03:04.297Z,99843.53
2023-11-29T12:04:07.263Z,99849.53
2023-11-29T12:05:09.962Z,99850.19
2023-11-29T12:06:13.387Z,99849.31
2023-11-29T12:07:16.718Z,99855.38
2023-11-29T12:08:20.162Z,99845.41
2023-11-29T12:09:23.162Z,99852.22
2023-11-29T12:10:26.360Z,99853.88
2023-11-29T12:11:29.345Z,99859.25
2023-11-29T12:12:35.366Z,99853.19
2023-11-29T12:13:38.484Z,99859.25
2023-11-29T12:14:46.832Z,99793.09
2023-11-29T12:15:49.730Z,99859.25
2023-11-29T12:16:53.117Z,99854.91
2023-11-29T12:17:56.295Z,99857.59
2023-11-29T12:18:59.832Z,99857.75
2023-11-29T12:20:06.489Z,99853.59
2023-11-29T12:21:09.770Z,99832.16
2023-11-29T12:22:12.674Z,99859.19
2023-11-29T12:23:15.947Z,99857.81
2023-11-29T12:24:18.807Z,99859.41
2023-11-29T12:25:21.756Z,99860.59
2023-11-29T12:26:26.824Z,99867.47
2023-11-29T12:27:29.872Z,99865.78
2023-11-29T12:28:34.179Z,99871.91
2023-11-29T12:29:48.252Z,99870.09
2023-11-29T12:30:55.110Z,99868.59
2023-11-29T12:31:58.455Z,99866.94
2023-11-29T12:33:01.133Z,99870.87